x

Cape Elizabeth- 45nm Nw Of Aberdeen, Wa (46041) Wave Buoy

6:50 - Wed 2nd Sep 2015 All times are PDT. -7 hours from GMT.

  • Sig Wave height 9.2ft
  • Swell Direction
  • Peak Period 11s
  • Average Period 8s
  • Wind
    9mph, 13mph gusts
  • Sea Temp 60°f
  • Air Temp 60°f
  • Sea Pressure 1013.8mb
  • Cape Elizabeth- 45nm Nw Of Aberdeen, Wa
  • Cape Elizabeth- 45nm Nw Of Aberdeen, Wa

More Historic Weather Station data

Upgrade to MSW Pro to gain access to the past 30 days of data for over 8000 Wavebouys and Weather Stations around the globe.

Join Pro

Comparision Forecast

View Surf forecast
   
mer. 09/02 6:50 9ft 11s 8s 9 13 mph 1013.8mb 60f 60f
5:50 8.5ft 12s 8s 11 13 mph 1013.5mb 60f 60f
4:50 9ft 11s 8s 9 13 mph 1013.3mb 60f 60f
3:50 9ft 11s 8s 11 13 mph 1012.9mb 60f 60f
2:50 9ft 12s 8s 13 16 mph 1012.8mb 60f 59f
1:50 9ft 11s 8s 9 11 mph 1012.6mb 60f 60f
12:50 10ft 11s 8s 13 16 mph 1012.6mb 60f 60f
11:50 8ft 11s 7s 13
mph
1012.6mb 59f 60f
10:50 8.5ft 11s 8s 11 13 mph 1012.1mb 59f 60f
9:50 9.5ft 12s 8s 11 13 mph 1011.7mb 59f 59f
8:50 9.5ft 11s 8s 9 11 mph 1011.3mb 58f 59f
7:50 10ft 11s 8s 13 16 mph 1011.1mb 58f 58f
6:50 8ft 11s 8s 11 13 mph 1010.6mb 58f 58f
5:50 9ft 11s 8s 9 11 mph 1010.3mb 58f 60f
4:50 8.5ft 11s 8s 9 11 mph 1010mb 59f 60f
3:50 8ft 11s 8s 9 11 mph 1009.7mb 59f 60f
2:50 8ft 11s 8s 7 9 mph 1009.5mb 59f 60f
1:50 7ft 11s 7s 7 11 mph 1009.4mb 59f 60f
12:50 8ft 11s 8s 9 13 mph 1009.3mb 59f 60f
mar. 09/01 11:50 7.5ft 11s 7s 11 13 mph 1009.2mb 59f 59f
10:50 7.5ft 11s 7s 11 13 mph 1009.1mb 59f 59f
9:50 7.5ft 11s 7s 11 16 mph 1009.3mb 60f 60f
8:50 7.5ft 11s 8s 11 13 mph 1009.1mb 60f 60f
7:50 7ft 11s 7s 7 9 mph 1008.8mb 59f 59f
6:50 8ft 12s 8s 13 16 mph 1008.8mb 59f 58f
5:50 8ft 11s 8s 11 13 mph 1008.8mb 60f 60f
4:50 8.5ft 11s 8s 9 11 mph 1009mb 60f 58f
3:50 8ft 10s 8s 9 11 mph 1009.2mb 60f 60f
2:50 7.5ft 11s 8s 9 11 mph 1009.7mb 60f 60f
1:50 8.5ft 11s 8s 9 11 mph 1010mb 60f 61f
12:50 8.5ft 10s 8s 7
mph
1010.3mb 60f 61f
11:50 8ft 11s 8s 7 9 mph 1010.6mb 60f 61f
10:50 8.5ft 11s 8s 7 9 mph 1010.7mb 60f 61f
9:50 9ft 11s 8s 7 9 mph 1010.3mb 60f 61f
8:50 8.5ft 11s 8s 7 9 mph 1010.8mb 60f 60f
7:50 8.5ft 11s 8s 7
mph
1010.8mb 60f 60f
6:50 8.5ft 10s 8s 4 7 mph 1010.7mb 60f 60f
5:50 9ft 11s 8s 2
mph
1010.5mb 60f 60f
4:50 9ft 11s 8s 4 7 mph 1011mb 60f 60f
3:50 9ft 11s 8s 4 7 mph 1011.2mb 60f 60f
2:50 9ft 11s 7s 7 11 mph 1011mb 60f 61f
1:50 9ft 11s 8s 11 13 mph 1011.1mb 60f 61f
12:50 9ft 11s 8s 16 18 mph 1010.9mb 60f 61f
lun. 08/31 11:50 9ft 11s 8s 13 18 mph 1011.2mb 60f 62f
10:50 9ft 11s 8s 16 18 mph 1011.4mb 60f 62f
9:50 9ft 11s 8s 11 13 mph 1011.8mb 60f 61f
8:50 10ft 11s 8s 11 13 mph 1011.9mb 60f 61f
7:50 9.5ft 11s 8s 11 13 mph 1012mb 60f 61f
6:50 9.5ft 11s 8s 13 16 mph 1012.3mb 60f 62f
5:50 10ft 10s 8s 13 16 mph 1012.5mb 60f 62f
4:50 9ft 10s 8s 11 13 mph 1012.8mb 60f 61f
3:50 8.5ft 10s 7s 13 16 mph 1012.9mb 60f 61f
2:50 8ft 10s 7s 16
mph
1013.2mb 60f 61f
1:50 8ft 11s 7s 13 16 mph 1013.3mb 59f 60f
12:50 8.5ft 10s 7s 16 20 mph 1013.5mb 59f 61f
11:50 8ft 10s 7s 13 16 mph 1013.8mb 59f 60f
10:50 8ft 10s 7s 16 20 mph 1013.6mb 59f 61f
9:50 7.5ft 11s 7s 13 16 mph 1013.3mb 59f 60f
8:50 7.5ft 16s 7s 16 18 mph 1013.4mb 59f 61f
7:50 8.5ft 11s 7s 13 16 mph 1013.3mb 59f 61f
6:50 8ft 8s 7s 13 16 mph 1013mb 59f 60f
5:50 8ft 8s 7s 9 11 mph 1012.9mb 60f 61f
4:50 8.5ft 10s 7s 11
mph
1012.7mb 60f 61f
3:50 9ft 9s 7s 18 22 mph 1012.5mb 60f 61f
2:50 9ft 11s 7s 11 13 mph 1012.6mb 60f 60f
1:50 8ft 15s 7s 16 18 mph 1012.8mb 60f 61f
12:50 8ft 11s 7s 18 20 mph 1013mb 60f 61f
dim. 08/30 11:50 9ft 10s 7s 18 22 mph 1013.2mb 60f 60f
10:50 8.5ft 11s 8s 16 20 mph 1013.5mb 60f 60f
9:50 9ft 15s 8s 16 18 mph 1013.9mb 60f 59f
8:50 9ft 11s 8s 16 18 mph 1014.1mb 58f 59f
7:50 9ft 12s 8s 13 16 mph 1014.4mb 58f 59f
6:50 9ft 16s 8s 11 13 mph 1014.4mb 58f 58f
5:50 8ft 8s 8s 11 13 mph 1014.4mb 58f 59f
4:50 8ft 16s 8s 9 11 mph 1014.4mb 58f 59f
3:50 8ft 14s 8s 11 16 mph 1014.1mb 58f 59f
2:50 10ft 12s 9s 11 16 mph 1013.8mb 58f 59f
1:50 9ft 9s 9s 11 13 mph 1013.3mb 58f 59f
12:50 10ft 8s 9s 11 16 mph 1012.7mb 57f 59f
11:50 10.5ft 9s 9s 11 13 mph 1012.2mb 59f 59f
10:50 10.5ft 9s 8s 7 9 mph 1011.8mb 60f 60f
9:50 10.5ft 8s 8s 7 9 mph 1010.9mb 60f 61f
8:50 10.5ft 9s 8s 9
mph
1010.2mb 60f 61f
7:50 11ft 8s 8s 11 13 mph 1009.4mb 59f 61f
6:50 10ft 8s 8s 11 13 mph 1008.5mb 58f 60f
5:50 10ft 17s 8s 9 11 mph 1007.8mb 56f 58f
4:50 8.5ft 17s 7s 9 11 mph 1007.3mb 56f 57f
3:50 9ft 9s 7s 11 13 mph 1007mb 56f 56f